Time;durP1;ratioP1;P1;durP2;ratioP2;P2;SDS_P1;SDS_P2;PMS_P1;PMS_P2;Temp;Humidity;BMP_temperature;BMP_pressure;BME280_temperature;BME280_humidity;BME280_pressure;Samples;Min_cycle;Max_cycle;Signal;HPM_P1;HPM_P2
2023/04/05 00:00:31;;;;;;;11.63;6.40;;;;;;;6.50;43.27;102425.78;4909498;28;119622;-67
2023/04/05 00:03:01;;;;;;;11.38;6.47;;;;;;;6.43;43.08;102415.28;4908947;28;119770;-67
2023/04/05 00:05:29;;;;;;;11.73;5.88;;;;;;;6.37;42.97;102415.31;4910025;28;123867;-67
2023/04/05 00:07:59;;;;;;;13.73;6.45;;;;;;;6.32;43.13;102416.19;4907537;28;124528;-67
2023/04/05 00:10:27;;;;;;;9.82;6.15;;;;;;;6.29;43.34;102422.34;4910521;28;119928;-67
2023/04/05 00:12:54;;;;;;;10.80;6.38;;;;;;;6.23;43.46;102417.06;4909312;28;118898;-69
2023/04/05 00:15:25;;;;;;;11.63;6.18;;;;;;;6.19;43.76;102410.06;4909758;28;124395;-67
2023/04/05 00:17:54;;;;;;;9.40;5.82;;;;;;;6.15;43.48;102403.06;4907956;28;124518;-67
2023/04/05 00:20:21;;;;;;;10.25;5.45;;;;;;;6.11;43.79;102407.44;4909974;28;119978;-67
2023/04/05 00:22:49;;;;;;;11.55;6.30;;;;;;;6.07;43.53;102404.84;4907583;28;120677;-66
2023/04/05 00:25:18;;;;;;;10.25;5.68;;;;;;;6.02;43.72;102408.31;4907821;28;124336;-66
2023/04/05 00:27:45;;;;;;;13.85;6.60;;;;;;;5.99;43.86;102407.44;4906765;28;124645;-71
2023/04/05 00:30:19;;;;;;;12.00;6.22;;;;;;;5.95;44.00;102411.88;4907822;28;119660;-66
2023/04/05 00:32:48;;;;;;;11.48;5.88;;;;;;;5.90;43.91;102404.81;4905960;28;118182;-66
2023/04/05 00:35:16;;;;;;;11.18;5.50;;;;;;;5.84;43.89;102403.06;4906931;28;124123;-66
2023/04/05 00:37:43;;;;;;;10.05;5.43;;;;;;;5.81;43.82;102397.81;4893416;28;124629;-66
2023/04/05 00:40:11;;;;;;;10.82;5.97;;;;;;;5.77;44.09;102401.31;4906622;28;119308;-67
2023/04/05 00:42:38;;;;;;;10.70;5.72;;;;;;;5.72;44.09;102403.06;4895527;28;118728;-67
2023/04/05 00:45:06;;;;;;;11.63;5.50;;;;;;;5.68;44.08;102396.06;4910450;28;123341;-67
2023/04/05 00:47:33;;;;;;;14.07;6.05;;;;;;;5.64;44.36;102393.41;4913241;28;123792;-67
2023/04/05 00:50:00;;;;;;;13.65;6.13;;;;;;;5.61;44.07;102389.91;4911040;28;119972;-67
2023/04/05 00:52:29;;;;;;;12.60;6.22;;;;;;;5.58;44.22;102396.03;4882253;28;118148;-67
2023/04/05 00:54:58;;;;;;;12.05;5.85;;;;;;;5.54;44.28;102388.13;4903618;28;123754;-67
2023/04/05 00:57:25;;;;;;;11.68;5.97;;;;;;;5.50;44.41;102392.53;4909606;28;123398;-68
2023/04/05 00:59:52;;;;;;;11.27;6.03;;;;;;;5.47;44.21;102377.63;4906781;28;118223;-67
2023/04/05 01:02:30;;;;;;;10.07;5.60;;;;;;;5.46;44.57;102385.50;4912195;28;118723;-67
2023/04/05 01:05:20;;;;;;;11.70;5.90;;;;;;;5.44;44.41;102392.50;4899355;28;122832;-67
2023/04/05 01:08:14;;;;;;;11.95;5.65;;;;;;;5.42;44.51;102389.00;4909609;28;123654;-68
2023/04/05 01:10:45;;;;;;;11.35;6.07;;;;;;;5.40;44.38;102390.75;4909819;28;119705;-68
2023/04/05 01:13:15;;;;;;;10.93;5.57;;;;;;;5.37;44.48;102385.50;4897265;28;118922;-66
2023/04/05 01:15:42;;;;;;;10.07;6.00;;;;;;;5.36;44.66;102378.50;4893309;28;122699;-68
2023/04/05 01:18:10;;;;;;;12.38;5.80;;;;;;;5.33;44.59;102381.13;4904912;28;124849;-67
2023/04/05 01:20:44;;;;;;;9.65;5.88;;;;;;;5.30;44.68;102375.88;4905456;28;118203;-67
2023/04/05 01:23:50;;;;;;;10.00;5.70;;;;;;;5.26;44.56;102378.47;4892770;28;118011;-66
2023/04/05 01:26:45;;;;;;;10.57;5.30;;;;;;;5.22;44.58;102381.97;4890680;28;123293;-67
2023/04/05 01:29:38;;;;;;;9.85;5.43;;;;;;;5.20;44.77;102383.72;4906337;28;123739;-67
2023/04/05 01:32:44;;;;;;;10.27;5.55;;;;;;;5.16;44.47;102376.72;4892092;28;119571;-66
2023/04/05 01:35:21;;;;;;;11.20;5.85;;;;;;;5.11;44.35;102378.47;4908545;28;118538;-67
2023/04/05 01:37:58;;;;;;;9.82;5.35;;;;;;;5.07;44.54;102376.69;4892699;28;123088;-66
2023/04/05 01:40:27;;;;;;;8.98;5.40;;;;;;;5.04;44.69;102372.28;4893911;28;123258;-67
2023/04/05 01:42:54;;;;;;;12.20;5.65;;;;;;;5.02;44.55;102368.78;4909638;28;119662;-67
2023/04/05 01:45:21;;;;;;;8.15;5.13;;;;;;;5.00;44.96;102369.69;4908989;28;119606;-67
2023/04/05 01:47:48;;;;;;;11.48;5.93;;;;;;;4.99;44.84;102378.41;4911647;28;123834;-67
2023/04/05 01:50:18;;;;;;;12.40;6.43;;;;;;;4.98;44.77;102376.69;4900168;28;123162;-66
2023/04/05 01:52:46;;;;;;;10.98;5.82;;;;;;;4.97;44.82;102369.66;4894631;28;118750;-67
2023/04/05 01:55:15;;;;;;;11.55;6.20;;;;;;;4.96;44.97;102375.78;4905898;28;118854;-67
2023/04/05 01:57:42;;;;;;;10.82;5.85;;;;;;;4.95;44.89;102366.16;4908422;28;124803;-67
2023/04/05 02:00:11;;;;;;;12.00;5.97;;;;;;;4.94;44.82;102359.16;4908856;28;124272;-67
2023/04/05 02:02:40;;;;;;;10.70;6.15;;;;;;;4.92;45.11;102360.91;4910660;28;121742;-68
2023/04/05 02:05:08;;;;;;;10.63;5.13;;;;;;;4.92;45.27;102360.91;4902574;28;119291;-68
2023/04/05 02:07:35;;;;;;;9.48;5.28;;;;;;;4.90;45.04;102367.88;4910442;28;125428;-67
2023/04/05 02:10:03;;;;;;;12.40;4.95;;;;;;;4.87;44.95;102364.38;4894088;28;123015;-67
2023/04/05 02:12:31;;;;;;;10.70;5.47;;;;;;;4.86;45.26;102367.88;4908079;28;119243;-67
2023/04/05 02:14:58;;;;;;;9.95;4.97;;;;;;;4.84;45.32;102364.38;4908687;28;119811;-68
2023/04/05 02:17:32;;;;;;;9.25;5.43;;;;;;;4.82;45.15;102360.88;4891448;28;124171;-68
2023/04/05 02:20:05;;;;;;;10.23;5.57;;;;;;;4.79;45.18;102358.22;4907582;28;123905;-68
2023/04/05 02:22:32;;;;;;;10.63;5.55;;;;;;;4.77;45.29;102362.59;4908306;28;119752;-68
2023/04/05 02:25:00;;;;;;;11.25;5.43;;;;;;;4.74;45.17;102354.72;4910552;28;118717;-68
2023/04/05 02:27:27;;;;;;;10.43;5.60;;;;;;;4.70;45.15;102352.94;4910309;28;124465;-67
2023/04/05 02:29:56;;;;;;;12.73;5.80;;;;;;;4.66;45.06;102356.44;4908615;28;123869;-69
2023/04/05 02:32:23;;;;;;;11.63;5.32;;;;;;;4.63;45.21;102348.53;4908304;28;119433;-69
2023/04/05 02:34:52;;;;;;;10.85;5.68;;;;;;;4.59;45.19;102345.03;4904820;28;118343;-67
2023/04/05 02:37:24;;;;;;;9.25;5.53;;;;;;;4.56;45.53;102346.75;4893628;28;123270;-67
2023/04/05 02:39:52;;;;;;;9.48;5.47;;;;;;;4.53;45.57;102346.75;4910972;28;123908;-67
2023/04/05 02:42:19;;;;;;;10.85;5.60;;;;;;;4.50;45.64;102342.34;4908285;28;118462;-67
2023/04/05 02:44:51;;;;;;;11.13;5.35;;;;;;;4.47;45.64;102338.00;4908815;28;119747;-67
2023/04/05 02:47:20;;;;;;;10.93;4.65;;;;;;;4.45;45.32;102337.09;4906147;28;123414;-67
2023/04/05 02:49:53;;;;;;;8.63;4.18;;;;;;;4.43;45.27;102341.47;4892902;28;123096;-67
2023/04/05 02:52:23;;;;;;;9.77;4.57;;;;;;;4.42;45.45;102344.09;4889446;28;119766;-66
2023/04/05 02:54:51;;;;;;;11.45;4.57;;;;;;;4.40;45.37;102336.19;4892909;28;119079;-68
2023/04/05 02:57:24;;;;;;;10.13;4.43;;;;;;;4.37;45.37;102333.59;4906723;28;124317;-67
2023/04/05 03:00:04;;;;;;;8.32;3.85;;;;;;;4.36;45.21;102339.69;4906837;28;123821;-67
2023/04/05 03:02:32;;;;;;;6.55;3.63;;;;;;;4.35;45.39;102332.69;4897996;28;118577;-66
2023/04/05 03:05:02;;;;;;;8.98;4.13;;;;;;;4.34;45.34;102330.94;4908296;28;119074;-67
2023/04/05 03:07:34;;;;;;;7.05;3.90;;;;;;;4.33;45.37;102339.66;4906174;28;124211;-67
2023/04/05 03:10:05;;;;;;;8.30;3.97;;;;;;;4.32;45.10;102326.56;4907181;28;123013;-66
2023/04/05 03:12:36;;;;;;;7.88;4.20;;;;;;;4.31;45.12;102323.03;4896971;28;118390;-67
2023/04/05 03:15:04;;;;;;;7.10;3.95;;;;;;;4.29;45.11;102320.44;4893439;28;118004;-66
2023/04/05 03:17:37;;;;;;;8.55;4.25;;;;;;;4.28;45.04;102320.41;4907223;28;123314;-66
2023/04/05 03:20:08;;;;;;;9.63;4.30;;;;;;;4.24;45.15;102329.16;4909392;28;123067;-67
2023/04/05 03:22:36;;;;;;;10.57;4.28;;;;;;;4.21;44.98;102323.88;4893032;28;118518;-66
2023/04/05 03:25:05;;;;;;;8.23;3.85;;;;;;;4.19;45.22;102321.25;4904708;28;118177;-66
2023/04/05 03:27:40;;;;;;;8.52;4.60;;;;;;;4.16;45.16;102320.34;4907370;28;125372;-67
2023/04/05 03:30:14;;;;;;;11.55;3.97;;;;;;;4.13;45.16;102315.09;4907135;28;126551;-67
2023/04/05 03:32:56;;;;;;;10.15;4.40;;;;;;;4.10;45.20;102319.44;4899517;28;118346;-66
2023/04/05 03:35:43;;;;;;;7.75;3.97;;;;;;;4.06;45.14;102320.28;4910526;28;120074;-66
2023/04/05 03:38:12;;;;;;;8.95;3.88;;;;;;;4.06;45.21;102319.41;4901662;28;123125;-67
2023/04/05 03:40:59;;;;;;;8.85;4.10;;;;;;;4.03;45.29;102315.06;4909212;28;123691;-67
2023/04/05 03:43:30;;;;;;;8.57;4.13;;;;;;;4.03;45.38;102320.28;4909299;28;120453;-68
2023/04/05 03:45:57;;;;;;;11.27;4.07;;;;;;;4.02;45.33;102323.75;4907636;28;120091;-68
2023/04/05 03:48:27;;;;;;;9.00;4.00;;;;;;;4.00;45.26;102320.25;4903327;28;123240;-68
2023/04/05 03:50:55;;;;;;;8.45;3.83;;;;;;;4.00;45.39;102319.41;4906636;28;123891;-67
2023/04/05 03:53:22;;;;;;;8.25;3.88;;;;;;;3.98;45.26;102306.28;4909332;28;119460;-67
2023/04/05 03:55:54;;;;;;;10.55;4.20;;;;;;;3.98;45.45;102303.66;4898801;28;118162;-65
2023/04/05 03:58:44;;;;;;;10.05;4.25;;;;;;;3.97;45.62;102304.50;4892461;28;123598;-68
2023/04/05 04:01:12;;;;;;;9.48;4.35;;;;;;;3.95;45.53;102290.50;4900394;28;122983;-68
2023/04/05 04:03:39;;;;;;;8.23;4.10;;;;;;;3.94;45.37;102301.88;4875142;28;118547;-68
2023/04/05 04:06:07;;;;;;;9.82;4.53;;;;;;;3.93;45.38;102297.50;4907671;28;119406;-68
2023/04/05 04:08:34;;;;;;;8.70;4.00;;;;;;;3.92;45.55;102295.75;4908095;28;124620;-68
2023/04/05 04:11:01;;;;;;;9.88;4.15;;;;;;;3.91;45.46;102294.00;4908384;28;124673;-68
2023/04/05 04:13:39;;;;;;;8.52;3.92;;;;;;;3.88;45.54;102299.19;4898879;28;119158;-69
2023/04/05 04:16:12;;;;;;;10.23;4.20;;;;;;;3.86;45.36;102295.69;4906639;28;118038;-69
2023/04/05 04:18:58;;;;;;;12.07;4.10;;;;;;;3.84;45.52;102292.19;4896252;28;124584;-68
2023/04/05 04:21:38;;;;;;;7.75;3.83;;;;;;;3.80;45.32;102293.06;4902183;28;127270;-68
2023/04/05 04:24:44;;;;;;;9.70;4.30;;;;;;;3.77;45.55;102290.41;4913380;28;119171;-68
2023/04/05 04:27:43;;;;;;;12.07;3.97;;;;;;;3.76;45.57;102299.13;4904820;28;117933;-68
2023/04/05 04:30:29;;;;;;;;;;;;;;;3.73;45.39;102288.63;4913527;28;124951;-67
2023/04/05 04:33:07;;;;;;;6.72;3.42;;;;;;;3.72;45.35;102290.38;4895921;28;123478;-68
2023/04/05 04:36:07;;;;;;;7.60;4.05;;;;;;;3.69;45.56;102286.00;4906407;28;120270;-66
2023/04/05 04:38:55;;;;;;;8.85;4.20;;;;;;;3.67;45.69;102285.13;4911926;28;119926;-66
2023/04/05 04:41:46;;;;;;;8.82;4.13;;;;;;;3.67;45.48;102295.59;4885652;28;124393;-67
2023/04/05 04:44:41;;;;;;;9.98;4.05;;;;;;;3.66;45.28;102288.59;4896023;28;123519;-67
2023/04/05 04:47:41;;;;;;;11.50;4.40;;;;;;;3.62;45.47;102294.69;4894418;28;119608;-67
2023/04/05 04:50:31;;;;;;;8.73;4.45;;;;;;;3.59;45.47;102297.28;4892652;28;118269;-67
2023/04/05 04:52:59;;;;;;;10.68;4.38;;;;;;;3.58;45.60;102292.91;4910869;28;124752;-67
2023/04/05 04:55:27;;;;;;;8.98;4.30;;;;;;;3.58;45.63;102292.91;4908789;28;123751;-67
2023/04/05 04:57:55;;;;;;;9.85;4.40;;;;;;;3.58;45.66;102285.06;4908945;28;119375;-67
2023/04/05 05:00:23;;;;;;;9.13;4.20;;;;;;;3.58;45.48;102300.78;4909142;28;119053;-68
2023/04/05 05:02:52;;;;;;;11.73;4.57;;;;;;;3.57;45.76;102298.13;4905004;28;123683;-67
2023/04/05 05:05:22;;;;;;;9.40;4.93;;;;;;;3.56;45.53;102297.28;4911896;28;124162;-72
2023/04/05 05:07:51;;;;;;;11.75;5.13;;;;;;;3.55;45.53;102300.75;4910395;28;119187;-67
2023/04/05 05:10:19;;;;;;;12.18;4.60;;;;;;;3.54;45.88;102298.97;4910183;28;119323;-67
2023/04/05 05:12:50;;;;;;;9.52;4.28;;;;;;;3.53;46.03;102297.22;4909935;28;124105;-68
2023/04/05 05:15:18;;;;;;;8.90;4.10;;;;;;;3.53;45.75;102292.00;4910537;28;123718;-68
2023/04/05 05:17:46;;;;;;;9.05;4.45;;;;;;;3.54;45.92;102298.97;4911743;28;119570;-68
2023/04/05 05:20:13;;;;;;;11.30;5.00;;;;;;;3.55;45.90;102294.63;4912013;28;119541;-67
2023/04/05 05:22:45;;;;;;;10.13;4.28;;;;;;;3.56;46.05;102305.13;4893662;28;123203;-72
2023/04/05 05:25:12;;;;;;;9.27;4.50;;;;;;;3.57;45.85;102296.38;4897169;28;123274;-67
2023/04/05 05:27:40;;;;;;;9.48;4.68;;;;;;;3.57;45.90;102293.75;4911383;28;120514;-67
2023/04/05 05:30:08;;;;;;;11.57;4.70;;;;;;;3.56;46.16;102299.88;4908813;28;121220;-67
2023/04/05 05:32:35;;;;;;;9.27;4.53;;;;;;;3.57;45.96;102296.38;4891472;28;124152;-67
2023/04/05 05:35:02;;;;;;;14.10;5.07;;;;;;;3.58;45.87;102300.78;4906087;28;124464;-67
2023/04/05 05:37:31;;;;;;;12.68;6.03;;;;;;;3.59;46.22;102297.28;4908482;28;119174;-66
2023/04/05 05:39:59;;;;;;;12.93;5.15;;;;;;;3.60;46.07;102292.91;4908263;28;119581;-66
2023/04/05 05:42:26;;;;;;;11.65;5.32;;;;;;;3.61;45.89;102295.53;4908276;28;124142;-66
2023/04/05 05:44:54;;;;;;;11.52;5.50;;;;;;;3.62;45.73;102286.81;4899368;28;124581;-66
2023/04/05 05:47:21;;;;;;;12.43;5.68;;;;;;;3.65;46.17;102292.06;4903582;28;119744;-66
2023/04/05 05:49:48;;;;;;;9.63;4.78;;;;;;;3.66;46.31;102287.72;4909027;28;118840;-66
2023/04/05 05:52:16;;;;;;;11.63;5.70;;;;;;;3.67;46.29;102286.84;4907519;28;122945;-66
2023/04/05 05:54:44;;;;;;;9.68;5.15;;;;;;;3.68;46.51;102286.84;4909543;28;124064;-66
2023/04/05 05:57:11;;;;;;;11.77;5.43;;;;;;;3.70;46.32;102284.25;4908056;28;119590;-66
2023/04/05 05:59:38;;;;;;;12.20;5.28;;;;;;;3.74;46.35;102285.16;4905711;28;118850;-66
2023/04/05 06:02:07;;;;;;;10.52;5.45;;;;;;;3.79;46.47;102286.06;4909671;28;124138;-66
2023/04/05 06:04:34;;;;;;;11.10;5.60;;;;;;;3.83;46.61;102290.47;4908845;28;124009;-66
2023/04/05 06:07:01;;;;;;;14.05;5.30;;;;;;;3.88;46.61;102293.97;4909710;28;119868;-67
2023/04/05 06:09:29;;;;;;;13.32;5.50;;;;;;;3.93;46.45;102292.25;4911472;28;119277;-66
2023/04/05 06:11:57;;;;;;;8.30;4.90;;;;;;;3.99;46.76;102292.28;4906524;28;124240;-66
2023/04/05 06:14:24;;;;;;;12.25;5.03;;;;;;;4.05;46.79;102297.59;4906473;28;124069;-66
2023/04/05 06:16:52;;;;;;;11.30;5.00;;;;;;;4.14;46.73;102295.88;4907838;28;121844;-67
2023/04/05 06:19:19;;;;;;;10.48;4.97;;;;;;;4.22;46.81;102299.38;4909385;28;119967;-66
2023/04/05 06:21:46;;;;;;;11.23;5.10;;;;;;;4.30;46.80;102297.69;4890779;28;124190;-67
2023/04/05 06:24:14;;;;;;;10.57;4.95;;;;;;;4.37;46.78;102299.50;4905548;28;123761;-66
2023/04/05 06:26:42;;;;;;;9.18;4.90;;;;;;;4.44;47.04;102301.25;4911286;28;119717;-67
2023/04/05 06:29:09;;;;;;;11.02;5.50;;;;;;;4.53;47.12;102299.53;4910801;28;118980;-67
2023/04/05 06:31:36;;;;;;;9.60;4.80;;;;;;;4.61;47.15;102292.56;4907541;28;123818;-67
2023/04/05 06:34:04;;;;;;;8.85;4.57;;;;;;;4.71;47.22;102294.34;4893164;28;124437;-67
2023/04/05 06:36:32;;;;;;;9.40;4.90;;;;;;;4.82;47.16;102287.38;4908031;28;119844;-67
2023/04/05 06:39:00;;;;;;;10.40;5.07;;;;;;;4.96;47.22;102294.41;4895116;28;118808;-67
2023/04/05 06:41:27;;;;;;;8.70;4.22;;;;;;;5.10;47.39;102287.41;4909003;28;124031;-67
2023/04/05 06:43:55;;;;;;;8.57;4.75;;;;;;;5.24;47.79;102285.69;4910046;28;123739;-67
2023/04/05 06:46:24;;;;;;;9.40;4.57;;;;;;;5.42;47.71;102294.44;4909480;28;119305;-67
2023/04/05 06:48:51;;;;;;;9.40;4.95;;;;;;;5.57;47.47;102283.91;4909037;28;118847;-68
2023/04/05 06:51:19;;;;;;;10.18;4.95;;;;;;;5.71;47.67;102286.53;4910389;28;124110;-67
2023/04/05 06:53:46;;;;;;;11.32;5.60;;;;;;;5.86;47.58;102288.25;4910787;28;124251;-67
2023/04/05 06:56:14;;;;;;;9.35;5.10;;;;;;;5.99;47.30;102292.63;4911094;28;119209;-67
2023/04/05 06:58:41;;;;;;;10.38;4.95;;;;;;;6.13;47.48;102295.22;4908941;28;119436;-67
2023/04/05 07:01:08;;;;;;;12.10;5.30;;;;;;;6.30;47.39;102297.78;4907940;28;123976;-67
2023/04/05 07:03:36;;;;;;;8.63;4.93;;;;;;;6.43;47.50;102294.22;4893417;28;124819;-68
2023/04/05 07:06:03;;;;;;;9.70;5.43;;;;;;;6.58;47.46;102298.53;4908281;28;120393;-67
2023/04/05 07:08:31;;;;;;;11.70;4.95;;;;;;;6.73;47.22;102300.22;4910663;28;120468;-68
2023/04/05 07:10:58;;;;;;;10.43;5.70;;;;;;;6.88;47.47;102306.31;4893262;28;123420;-68
2023/04/05 07:13:26;;;;;;;9.60;5.05;;;;;;;7.00;47.17;102300.94;4908754;28;122785;-68
2023/04/05 07:16:01;;;;;;;9.88;5.40;;;;;;;7.15;47.12;102306.09;4909791;28;119225;-68
2023/04/05 07:18:28;;;;;;;11.40;5.57;;;;;;;7.29;47.31;102299.84;4898702;28;119174;-67
2023/04/05 07:21:02;;;;;;;9.63;5.25;;;;;;;7.44;47.27;102302.38;4907709;28;124114;-67
2023/04/05 07:23:30;;;;;;;9.27;5.10;;;;;;;7.64;47.28;102298.69;4877601;28;122731;-68
2023/04/05 07:26:04;;;;;;;11.32;5.60;;;;;;;7.82;47.01;102298.50;4894192;28;118730;-68
2023/04/05 07:28:34;;;;;;;9.10;5.27;;;;;;;8.01;47.28;102293.03;4893782;28;117883;-68
2023/04/05 07:31:02;;;;;;;11.55;5.30;;;;;;;8.17;46.58;102294.59;4908669;28;124037;-69
2023/04/05 07:33:30;;;;;;;11.02;5.50;;;;;;;8.30;46.42;102300.59;4893457;28;124187;-68
2023/04/05 07:35:57;;;;;;;10.38;4.80;;;;;;;8.44;46.66;102289.91;4908589;28;119877;-68
2023/04/05 07:38:28;;;;;;;9.70;4.97;;;;;;;8.57;46.54;102283.59;4908605;28;119105;-68
2023/04/05 07:40:56;;;;;;;9.63;5.38;;;;;;;8.75;46.56;102288.59;4908649;28;124341;-68
2023/04/05 07:43:24;;;;;;;10.35;5.13;;;;;;;8.90;46.22;102281.34;4892943;28;123985;-71
2023/04/05 07:45:59;;;;;;;9.20;5.03;;;;;;;9.03;46.03;102288.19;4892054;28;119942;-68
2023/04/05 07:48:27;;;;;;;8.73;5.18;;;;;;;9.18;46.11;102288.88;4908282;28;118981;-68
2023/04/05 07:50:54;;;;;;;10.05;5.53;;;;;;;9.28;45.63;102286.03;4907607;28;124579;-68
2023/04/05 07:53:21;;;;;;;10.70;5.68;;;;;;;9.37;45.75;102292.94;4909884;28;124683;-68
2023/04/05 07:55:49;;;;;;;11.65;6.32;;;;;;;9.52;45.59;102287.38;4907574;28;120561;-68
2023/04/05 07:58:17;;;;;;;10.18;5.00;;;;;;;9.67;45.65;102285.38;4907814;28;120512;-68
2023/04/05 08:00:44;;;;;;;11.18;6.07;;;;;;;9.80;45.76;102281.63;4897340;28;124496;-68
2023/04/05 08:03:11;;;;;;;9.82;5.50;;;;;;;9.91;45.61;102284.94;4910456;28;124621;-68
2023/04/05 08:05:38;;;;;;;8.52;5.28;;;;;;;10.04;45.52;102284.66;4909069;28;119835;-68
2023/04/05 08:08:07;;;;;;;13.05;5.70;;;;;;;10.18;45.22;102277.34;4908445;28;118598;-68
2023/04/05 08:10:38;;;;;;;9.85;5.47;;;;;;;10.28;44.93;102278.91;4908893;28;123997;-68
2023/04/05 08:13:07;;;;;;;10.88;6.00;;;;;;;10.37;44.60;102282.28;4909491;28;123750;-69
2023/04/05 08:15:34;;;;;;;10.68;5.95;;;;;;;10.42;44.61;102280.44;4911459;28;118676;-68
2023/04/05 08:18:02;;;;;;;10.10;5.50;;;;;;;10.49;44.78;102282.03;4907664;28;119042;-68
2023/04/05 08:20:29;;;;;;;9.70;5.85;;;;;;;10.62;44.91;102278.19;4907023;28;123905;-67
2023/04/05 08:22:57;;;;;;;10.52;5.53;;;;;;;10.75;45.00;102283.22;4912418;28;124187;-68
2023/04/05 08:25:24;;;;;;;10.05;5.43;;;;;;;10.89;44.66;102281.16;4915659;28;119437;-70
2023/04/05 08:27:51;;;;;;;14.20;6.10;;;;;;;11.03;44.28;102276.38;4907560;28;119763;-68
2023/04/05 08:30:19;;;;;;;11.60;5.68;;;;;;;11.13;44.06;102273.50;4908180;28;124872;-68
2023/04/05 08:32:46;;;;;;;9.68;5.35;;;;;;;11.19;43.60;102279.53;4892030;28;123965;-68
2023/04/05 08:35:13;;;;;;;9.63;4.93;;;;;;;11.22;43.66;102278.59;4893528;28;120091;-68
2023/04/05 08:37:42;;;;;;;8.20;5.35;;;;;;;11.30;43.88;102282.81;4909913;28;119074;-68
2023/04/05 08:40:10;;;;;;;9.50;4.75;;;;;;;11.43;44.16;102272.75;4907810;28;123955;-68
2023/04/05 08:43:09;;;;;;;11.55;5.35;;;;;;;11.60;43.66;102276.72;4891258;28;122961;-68
2023/04/05 08:45:46;;;;;;;9.20;5.20;;;;;;;11.69;43.36;102271.19;4908097;28;120079;-68
2023/04/05 08:48:15;;;;;;;9.85;5.50;;;;;;;11.78;43.48;102278.91;4907769;28;119720;-68
2023/04/05 08:50:49;;;;;;;9.15;5.05;;;;;;;11.90;43.15;102268.91;4892283;28;123345;-68
2023/04/05 08:53:17;;;;;;;8.80;4.57;;;;;;;12.01;43.12;102277.44;4908939;28;123638;-69
2023/04/05 08:55:54;;;;;;;8.57;4.57;;;;;;;12.14;42.64;102275.31;4908947;28;119619;-68
2023/04/05 08:58:23;;;;;;;7.32;4.63;;;;;;;12.21;42.16;102272.44;4908822;28;119586;-68
2023/04/05 09:00:51;;;;;;;8.77;5.82;;;;;;;12.27;42.13;102272.25;4908980;28;124649;-68
2023/04/05 09:03:21;;;;;;;9.93;5.90;;;;;;;12.40;42.21;102269.25;4908427;28;123974;-68
2023/04/05 09:05:50;;;;;;;9.43;5.25;;;;;;;12.50;41.87;102268.03;4909445;28;119263;-68
2023/04/05 09:08:20;;;;;;;9.68;4.82;;;;;;;12.58;41.11;102270.47;4911374;28;118698;-68
2023/04/05 09:10:51;;;;;;;8.32;5.13;;;;;;;12.60;41.11;102269.50;4907977;28;124254;-68
2023/04/05 09:13:18;;;;;;;7.40;4.63;;;;;;;12.69;41.27;102270.13;4896423;28;124226;-68
2023/04/05 09:15:46;;;;;;;9.27;4.95;;;;;;;12.77;41.15;102271.66;4913161;28;119765;-68
2023/04/05 09:18:16;;;;;;;9.23;4.72;;;;;;;12.88;40.82;102268.63;4910927;28;119966;-68
2023/04/05 09:21:03;;;;;;;8.88;4.35;;;;;;;12.99;40.84;102266.50;4909234;28;123884;-68
2023/04/05 09:23:33;;;;;;;6.38;3.45;;;;;;;13.09;40.59;102260.88;4901815;28;123972;-68
2023/04/05 09:26:20;;;;;;;6.57;3.97;;;;;;;13.15;39.90;102268.69;4910134;28;119215;-68
2023/04/05 09:28:50;;;;;;;6.97;3.95;;;;;;;13.16;39.71;102262.41;4902545;28;118183;-68
2023/04/05 09:31:35;;;;;;;6.80;4.25;;;;;;;13.19;39.70;102262.34;4910592;28;123119;-68
2023/04/05 09:34:07;;;;;;;10.25;3.90;;;;;;;13.26;39.83;102258.56;4897890;28;124013;-68
2023/04/05 09:36:35;;;;;;;6.80;3.92;;;;;;;13.35;39.71;102250.25;4909460;28;120282;-68
2023/04/05 09:39:06;;;;;;;9.25;3.97;;;;;;;13.50;39.60;102256.00;4912924;28;119814;-68
2023/04/05 09:41:35;;;;;;;6.88;3.90;;;;;;;13.58;38.96;102253.91;4910015;28;123877;-67
2023/04/05 09:44:02;;;;;;;9.10;4.00;;;;;;;13.64;39.18;102248.41;4911737;28;124028;-68
2023/04/05 09:46:32;;;;;;;7.22;3.78;;;;;;;13.73;38.85;102242.75;4911555;28;119350;-68
2023/04/05 09:49:00;;;;;;;5.43;3.47;;;;;;;13.79;37.97;102242.53;4912114;28;119010;-68
2023/04/05 09:51:33;;;;;;;6.38;3.53;;;;;;;13.78;37.38;102246.09;4900150;28;123550;-68
2023/04/05 09:54:04;;;;;;;5.63;3.78;;;;;;;13.76;37.18;102237.28;4896560;28;123000;-68
2023/04/05 09:56:37;;;;;;;7.25;4.38;;;;;;;13.72;37.04;102241.00;4904463;28;119423;-68
2023/04/05 09:59:09;;;;;;;10.25;4.43;;;;;;;13.68;37.02;102244.69;4909374;28;119000;-68
2023/04/05 10:01:41;;;;;;;6.53;4.47;;;;;;;13.64;36.86;102237.75;4908054;28;123851;-68
2023/04/05 10:04:09;;;;;;;8.32;4.20;;;;;;;13.65;36.98;102234.16;4911977;28;124026;-68
2023/04/05 10:06:39;;;;;;;8.65;5.00;;;;;;;13.67;36.47;102232.31;4910201;28;119185;-67
2023/04/05 10:09:08;;;;;;;9.45;4.35;;;;;;;13.65;36.59;102236.81;4910477;28;119515;-68
2023/04/05 10:11:38;;;;;;;9.07;4.97;;;;;;;13.67;36.75;102220.78;4897676;28;123001;-67
2023/04/05 10:14:07;;;;;;;8.90;4.70;;;;;;;13.70;36.45;102236.66;4919797;28;124449;-67
2023/04/05 10:16:43;;;;;;;6.88;4.32;;;;;;;13.71;36.53;102228.63;4894304;28;118934;-67
2023/04/05 10:19:22;;;;;;;8.25;5.00;;;;;;;13.72;36.66;102219.69;4909610;28;119364;-68
2023/04/05 10:21:53;;;;;;;7.55;4.10;;;;;;;13.77;36.72;102217.75;4897728;28;124341;-68
2023/04/05 10:24:48;;;;;;;8.15;4.25;;;;;;;13.84;36.91;102223.69;4911904;28;123364;-68
2023/04/05 10:27:48;;;;;;;6.50;4.45;;;;;;;13.92;37.23;102215.44;4911906;28;120132;-68
2023/04/05 10:30:16;;;;;;;9.85;4.22;;;;;;;14.04;37.39;102225.66;4903145;28;120142;-68
2023/04/05 10:33:04;;;;;;;6.57;4.57;;;;;;;14.13;36.93;102219.97;4910044;28;124137;-68
2023/04/05 10:36:08;;;;;;;8.98;4.60;;;;;;;14.16;36.37;102211.84;4907833;28;123961;-67
2023/04/05 10:38:51;;;;;;;6.88;4.60;;;;;;;14.16;36.40;102203.84;4903945;28;120063;-68
2023/04/05 10:41:19;;;;;;;8.00;4.45;;;;;;;14.17;36.39;102210.94;4892966;28;117980;-68
2023/04/05 10:43:48;;;;;;;6.55;4.35;;;;;;;14.19;36.39;102209.06;4907364;28;122838;-68
2023/04/05 10:46:20;;;;;;;8.07;3.75;;;;;;;14.24;36.46;102206.25;4909160;28;124907;-68
2023/04/05 10:48:58;;;;;;;8.23;4.30;;;;;;;14.28;35.90;102201.63;4907167;28;119444;-68
2023/04/05 10:51:25;;;;;;;8.65;4.63;;;;;;;14.30;36.07;102199.81;4908385;28;118956;-68
2023/04/05 10:53:55;;;;;;;8.75;4.10;;;;;;;14.37;36.19;102202.16;4909618;28;124164;-68
2023/04/05 10:56:23;;;;;;;7.25;4.25;;;;;;;14.44;35.10;102186.78;4905279;28;123501;-69
2023/04/05 10:58:51;;;;;;;6.45;3.70;;;;;;;14.47;35.08;102186.69;4897704;28;120691;-68
2023/04/05 11:01:20;;;;;;;5.78;3.58;;;;;;;14.48;35.00;102185.72;4909229;28;119087;-69
2023/04/05 11:03:48;;;;;;;8.00;4.43;;;;;;;14.55;34.96;102189.91;4910485;28;124785;-69
2023/04/05 11:06:27;;;;;;;7.03;4.25;;;;;;;14.64;34.27;102179.84;4907898;28;124472;-68
2023/04/05 11:09:16;;;;;;;12.55;4.22;;;;;;;14.63;34.19;102176.28;4899560;28;119377;-68
2023/04/05 11:11:45;;;;;;;11.35;4.43;;;;;;;14.62;34.49;102179.00;4908971;28;118371;-68
2023/04/05 11:14:21;;;;;;;10.32;4.90;;;;;;;14.69;34.51;102180.50;4899410;28;123662;-68
2023/04/05 11:16:53;;;;;;;6.80;4.43;;;;;;;14.75;34.58;102169.59;4907733;28;124691;-68
2023/04/05 11:19:46;;;;;;;6.75;4.40;;;;;;;14.84;34.30;102169.19;4908184;28;120927;-69
2023/04/05 11:22:24;;;;;;;7.18;4.10;;;;;;;14.96;34.53;102163.34;4907348;28;120131;-68
2023/04/05 11:24:54;;;;;;;8.57;4.70;;;;;;;15.11;34.60;102168.97;4892859;28;123403;-68
2023/04/05 11:27:29;;;;;;;8.10;5.00;;;;;;;15.21;33.89;102172.97;4907791;28;123809;-68
2023/04/05 11:29:57;;;;;;;8.05;4.63;;;;;;;15.23;34.03;102164.91;4906991;28;119384;-68
2023/04/05 11:32:42;;;;;;;8.65;4.88;;;;;;;15.27;33.91;102156.69;4908739;28;119039;-68
2023/04/05 11:35:12;;;;;;;8.20;4.50;;;;;;;15.31;33.72;102158.31;4902740;28;124679;-68
2023/04/05 11:37:56;;;;;;;8.63;5.00;;;;;;;15.37;33.33;102158.03;4893799;28;124287;-68
2023/04/05 11:40:31;;;;;;;7.30;4.50;;;;;;;15.42;33.38;102159.63;4906180;28;119248;-67